Time;durP1;ratioP1;P1;durP2;ratioP2;P2;SDS_P1;SDS_P2;PMS_P1;PMS_P2;Temp;Humidity;BMP_temperature;BMP_pressure;BME280_temperature;BME280_humidity;BME280_pressure;Samples;Min_cycle;Max_cycle;Signal;HPM_P1;HPM_P2
2021/07/18 00:00:13;;;;;;;1.08;0.98;;;27.10;51.90;;;-147.20;100.00;58430.41;5116255;28;20101;-49
2021/07/18 00:02:39;;;;;;;0.70;0.70;;;27.00;51.90;;;-147.20;100.00;58430.41;5115915;28;20130;-50
2021/07/18 00:05:06;;;;;;;0.70;0.70;;;27.00;51.90;;;-147.20;100.00;58430.41;5116262;28;20060;-51
2021/07/18 00:07:33;;;;;;;0.82;0.75;;;27.00;52.00;;;-147.20;100.00;58430.41;5115660;28;20055;-52
2021/07/18 00:09:59;;;;;;;1.00;1.00;;;27.00;52.00;;;-147.20;100.00;58430.41;5115803;28;20055;-55
2021/07/18 00:12:24;;;;;;;0.70;0.70;;;27.00;52.00;;;-147.20;100.00;58430.41;5115679;28;20052;-52
2021/07/18 00:14:50;;;;;;;0.95;0.75;;;27.00;52.00;;;-147.20;100.00;58430.41;5115780;28;20043;-52
2021/07/18 00:17:16;;;;;;;0.70;0.70;;;27.00;52.00;;;-147.20;100.00;58430.41;5115958;28;20044;-54
2021/07/18 00:19:42;;;;;;;0.80;0.80;;;27.00;52.10;;;-147.20;100.00;58430.41;5114153;28;20047;-54
2021/07/18 00:22:08;;;;;;;0.82;0.82;;;27.00;52.10;;;-147.20;100.00;58430.41;5080391;28;20369;-52
2021/07/18 00:24:34;;;;;;;0.70;0.70;;;27.00;52.10;;;-147.20;100.00;58430.41;5115605;28;20050;-53
2021/07/18 00:27:00;;;;;;;1.02;1.02;;;26.90;52.10;;;-147.20;100.00;58430.41;5115922;28;20051;-55
2021/07/18 00:29:26;;;;;;;0.80;0.80;;;26.90;52.10;;;-147.20;100.00;58430.41;5115537;28;20503;-54
2021/07/18 00:31:52;;;;;;;0.82;0.82;;;27.00;52.20;;;-147.20;100.00;58430.41;5115498;28;20391;-54
2021/07/18 00:34:18;;;;;;;0.70;0.70;;;26.90;52.20;;;-147.20;100.00;58430.41;5115293;28;20372;-52
2021/07/18 00:36:44;;;;;;;1.00;1.00;;;26.90;52.20;;;-147.20;100.00;58430.41;5115495;28;20112;-51
2021/07/18 00:39:10;;;;;;;0.80;0.80;;;26.90;52.20;;;-147.20;100.00;58430.41;5115405;28;20059;-55
2021/07/18 00:41:36;;;;;;;0.98;0.98;;;26.90;52.20;;;-147.20;100.00;58430.41;5115339;28;20051;-53
2021/07/18 00:44:02;;;;;;;1.05;0.90;;;26.90;52.20;;;-147.20;100.00;58430.41;5115186;28;20403;-51
2021/07/18 00:46:28;;;;;;;0.75;0.70;;;26.90;52.80;;;-147.20;100.00;58430.41;5115261;28;20487;-54
2021/07/18 00:48:54;;;;;;;0.70;0.70;;;26.90;52.30;;;-147.20;100.00;58430.41;5115212;28;20092;-52
2021/07/18 00:51:19;;;;;;;0.80;0.77;;;26.90;52.30;;;-147.20;100.00;58430.41;5096780;28;20036;-53
2021/07/18 00:53:45;;;;;;;0.60;0.60;;;26.80;52.30;;;-147.20;100.00;58430.41;5115329;28;20135;-51
2021/07/18 00:56:11;;;;;;;0.68;0.68;;;26.80;52.30;;;-147.20;100.00;58430.41;5079266;28;20480;-48
2021/07/18 00:58:40;;;;;;;0.70;0.70;;;26.80;52.30;;;-147.20;100.00;58430.41;5096685;28;20050;-53
2021/07/18 01:01:07;;;;;;;0.80;0.80;;;26.80;52.30;;;-147.20;100.00;58430.41;5114774;28;20141;-53
2021/07/18 01:03:33;;;;;;;1.02;0.93;;;26.80;52.30;;;-147.20;100.00;58430.41;5114602;28;20430;-47
2021/07/18 01:05:59;;;;;;;1.17;0.80;;;26.80;52.40;;;-147.20;100.00;58430.41;5115191;28;20051;-52
2021/07/18 01:08:25;;;;;;;0.90;0.90;;;26.80;52.40;;;-147.20;100.00;58430.41;5111754;28;20048;-48
2021/07/18 01:10:50;;;;;;;0.73;0.73;;;26.80;52.50;;;-147.20;100.00;58430.41;5114808;28;20380;-49
2021/07/18 01:13:16;;;;;;;0.70;0.70;;;26.80;52.40;;;-147.20;100.00;58430.41;5114434;28;20389;-54
2021/07/18 01:15:42;;;;;;;1.13;1.02;;;26.80;52.40;;;-147.20;100.00;58430.41;5114669;28;20083;-52
2021/07/18 01:18:10;;;;;;;0.73;0.73;;;26.80;52.50;;;-147.20;100.00;58430.41;5095370;28;20466;-53
2021/07/18 01:20:37;;;;;;;1.08;0.80;;;26.80;52.50;;;-147.20;100.00;58430.41;5114310;28;20075;-47
2021/07/18 01:23:04;;;;;;;0.77;0.77;;;26.80;52.60;;;-147.20;100.00;58430.41;5114965;28;20048;-52
2021/07/18 01:25:30;;;;;;;0.90;0.75;;;26.80;52.70;;;-147.20;100.00;58430.41;5114614;28;20070;-50
2021/07/18 01:27:56;;;;;;;0.80;0.80;;;26.70;52.50;;;-147.20;100.00;58430.41;5096445;28;20058;-47
2021/07/18 01:30:22;;;;;;;0.88;0.88;;;26.70;52.60;;;-147.20;100.00;58430.41;5114443;28;20085;-52
2021/07/18 01:32:47;;;;;;;0.85;0.85;;;26.70;52.60;;;-147.20;100.00;58430.41;5114773;28;20263;-53
2021/07/18 01:35:13;;;;;;;0.70;0.70;;;26.70;52.60;;;-147.20;100.00;58430.41;5114979;28;20044;-52
2021/07/18 01:37:39;;;;;;;0.65;0.63;;;26.70;52.60;;;-147.20;100.00;58430.41;5114774;28;20531;-55
2021/07/18 01:40:10;;;;;;;0.70;0.70;;;26.70;52.60;;;-147.20;100.00;58430.41;5114545;28;20062;-51
2021/07/18 01:42:40;;;;;;;0.98;0.88;;;26.70;52.70;;;-147.20;100.00;58430.41;5114365;28;20070;-53
2021/07/18 01:45:08;;;;;;;0.70;0.70;;;26.70;52.70;;;-147.20;100.00;58430.41;5096130;28;20547;-52
2021/07/18 01:47:34;;;;;;;0.80;0.80;;;26.70;52.70;;;-147.20;100.00;58430.41;5114033;28;20475;-53
2021/07/18 01:49:59;;;;;;;0.63;0.63;;;26.60;52.70;;;-147.20;100.00;58430.41;5114790;28;20048;-52
2021/07/18 01:52:25;;;;;;;0.70;0.70;;;26.60;52.70;;;-147.20;100.00;58430.41;5114187;28;20421;-51
2021/07/18 01:54:55;;;;;;;0.82;0.77;;;26.60;52.70;;;-147.20;100.00;58430.41;5114014;28;20043;-54
2021/07/18 01:57:20;;;;;;;0.80;0.80;;;26.60;52.70;;;-147.20;100.00;58430.41;5114136;28;20048;-51
2021/07/18 01:59:46;;;;;;;0.88;0.88;;;26.60;52.70;;;-147.20;100.00;58430.41;5114380;28;20047;-52
2021/07/18 02:02:13;;;;;;;0.98;0.80;;;26.60;52.80;;;-147.20;100.00;58430.41;5114069;28;20050;-49
2021/07/18 02:04:39;;;;;;;0.80;0.75;;;26.60;52.80;;;-147.20;100.00;58430.41;5114010;28;20047;-52
2021/07/18 02:07:06;;;;;;;1.15;1.05;;;26.60;52.80;;;-147.20;100.00;58430.41;5113837;28;20056;-50
2021/07/18 02:09:36;;;;;;;0.80;0.80;;;26.60;52.80;;;-147.20;100.00;58430.41;5113932;28;20047;-53
2021/07/18 02:12:06;;;;;;;1.05;0.95;;;26.60;52.80;;;-147.20;100.00;58430.41;5113934;28;20051;-53
2021/07/18 02:14:34;;;;;;;0.80;0.80;;;26.60;52.90;;;-147.20;100.00;58430.41;5113391;28;20047;-51
2021/07/18 02:17:00;;;;;;;0.98;0.98;;;26.60;52.90;;;-147.20;100.00;58430.41;5112349;28;20044;-51
2021/07/18 02:19:29;;;;;;;0.80;0.80;;;26.60;52.90;;;-147.20;100.00;58430.41;5113656;28;20047;-47
2021/07/18 02:21:56;;;;;;;0.85;0.85;;;26.50;52.90;;;-147.20;100.00;58430.41;5095506;28;20048;-49
2021/07/18 02:24:22;;;;;;;1.25;0.60;;;26.50;52.90;;;-147.20;100.00;58430.41;5113895;28;20487;-54
2021/07/18 02:26:48;;;;;;;1.05;0.95;;;26.50;52.90;;;-147.20;100.00;58430.41;5113881;28;20051;-52
2021/07/18 02:29:14;;;;;;;0.80;0.80;;;26.50;52.90;;;-147.20;100.00;58430.41;5113889;28;20139;-47
2021/07/18 02:31:40;;;;;;;0.70;0.70;;;26.50;52.90;;;-147.20;100.00;58430.41;5113576;28;20054;-53
2021/07/18 02:34:06;;;;;;;0.65;0.65;;;26.50;52.90;;;-147.20;100.00;58430.41;5113535;28;20065;-49
2021/07/18 02:36:33;;;;;;;0.80;0.80;;;26.50;53.00;;;-147.20;100.00;58430.41;5113460;28;20497;-51
2021/07/18 02:38:59;;;;;;;0.98;0.98;;;26.50;53.00;;;-147.20;100.00;58430.41;5114005;28;20395;-50
2021/07/18 02:41:26;;;;;;;0.70;0.70;;;26.50;53.00;;;-147.20;100.00;58430.41;5113419;28;20529;-54
2021/07/18 02:43:52;;;;;;;0.70;0.70;;;26.50;53.00;;;-147.20;100.00;58430.41;5113355;28;20051;-48
2021/07/18 02:46:19;;;;;;;0.70;0.70;;;26.50;53.00;;;-147.20;100.00;58430.41;5113309;28;20043;-51
2021/07/18 02:48:45;;;;;;;0.90;0.90;;;26.50;53.00;;;-147.20;100.00;58430.41;5095388;28;20052;-52
2021/07/18 02:51:11;;;;;;;0.98;0.98;;;26.50;53.00;;;-147.20;100.00;58430.41;5113824;28;20046;-51
2021/07/18 02:53:36;;;;;;;1.05;0.90;;;26.50;53.00;;;-147.20;100.00;58430.41;5113242;28;20052;-53
2021/07/18 02:56:04;;;;;;;0.80;0.80;;;26.50;53.10;;;-147.20;100.00;58430.41;5094934;28;20499;-52
2021/07/18 02:58:31;;;;;;;0.93;0.88;;;26.50;53.10;;;-147.20;100.00;58430.41;5113185;28;20127;-54
2021/07/18 03:00:59;;;;;;;0.70;0.70;;;26.50;53.10;;;-147.20;100.00;58430.41;5113155;28;20440;-49
2021/07/18 03:03:25;;;;;;;0.82;0.82;;;26.40;53.00;;;-147.20;100.00;58430.41;5112916;28;20055;-50
2021/07/18 03:05:51;;;;;;;1.10;0.80;;;26.40;53.10;;;-147.20;100.00;58430.41;5093619;28;20052;-49
2021/07/18 03:08:16;;;;;;;0.82;0.80;;;26.40;53.00;;;-147.20;100.00;58430.41;5112842;28;20055;-53
2021/07/18 03:10:42;;;;;;;0.98;0.88;;;26.40;53.00;;;-147.20;100.00;58430.41;5112818;28;20055;-50
2021/07/18 03:13:08;;;;;;;1.02;0.70;;;26.40;53.10;;;-147.20;100.00;58430.41;5112852;28;20130;-49
2021/07/18 03:15:34;;;;;;;0.88;0.85;;;26.40;53.10;;;-147.20;100.00;58430.41;5112987;28;20112;-51
2021/07/18 03:18:01;;;;;;;1.00;0.90;;;26.40;53.10;;;-147.20;100.00;58430.41;5093853;28;20139;-48
2021/07/18 03:20:28;;;;;;;0.80;0.80;;;26.40;53.10;;;-147.20;100.00;58430.41;5112899;28;20370;-53
2021/07/18 03:22:53;;;;;;;1.05;0.95;;;26.40;53.10;;;-147.20;100.00;58430.41;5113402;28;20044;-52
2021/07/18 03:25:19;;;;;;;0.80;0.80;;;26.40;53.20;;;-147.20;100.00;58430.41;5115230;28;20046;-51
2021/07/18 03:27:46;;;;;;;1.70;0.90;;;26.40;53.10;;;-147.20;100.00;58430.41;5116275;28;20135;-49
2021/07/18 03:30:16;;;;;;;1.02;0.90;;;26.40;53.10;;;-147.20;100.00;58430.41;5116439;28;20047;-50
2021/07/18 03:32:42;;;;;;;0.95;0.90;;;26.40;53.10;;;-147.20;100.00;58430.41;5116382;28;20048;-52
2021/07/18 03:35:09;;;;;;;0.88;0.88;;;26.40;53.10;;;-147.20;100.00;58430.41;5116686;28;20047;-49
2021/07/18 03:37:36;;;;;;;0.98;0.80;;;26.40;53.10;;;-147.20;100.00;58430.41;5116322;28;20116;-50
2021/07/18 03:40:09;;;;;;;0.73;0.73;;;26.50;53.10;;;-147.20;100.00;58430.41;5116146;28;20127;-50
2021/07/18 03:42:36;;;;;;;0.80;0.80;;;26.50;53.10;;;-147.20;100.00;58430.41;5116355;28;20552;-51
2021/07/18 03:45:02;;;;;;;0.95;0.95;;;26.40;52.90;;;-147.20;100.00;58430.41;5114881;28;20039;-51
2021/07/18 03:47:27;;;;;;;0.70;0.70;;;26.50;53.00;;;-147.20;100.00;58430.41;5116188;28;20100;-47
2021/07/18 03:49:53;;;;;;;0.77;0.77;;;26.50;52.90;;;-147.20;100.00;58430.41;5111986;28;20057;-51
2021/07/18 03:52:19;;;;;;;0.80;0.80;;;26.50;52.80;;;-147.20;100.00;58430.41;5116478;28;20091;-48
2021/07/18 03:54:44;;;;;;;0.90;0.90;;;26.50;52.80;;;-147.20;100.00;58430.41;5115963;28;20047;-48
2021/07/18 03:57:10;;;;;;;0.93;0.88;;;26.50;52.80;;;-147.20;100.00;58430.41;5116052;28;20055;-49
2021/07/18 03:59:36;;;;;;;0.80;0.80;;;26.60;52.80;;;-147.20;100.00;58430.41;5115904;28;20055;-49
2021/07/18 04:02:02;;;;;;;0.70;0.60;;;26.60;52.80;;;-147.20;100.00;58430.41;5116137;28;20054;-47
2021/07/18 04:04:27;;;;;;;0.90;0.90;;;26.60;52.70;;;-147.20;100.00;58430.41;5116036;28;20138;-49
2021/07/18 04:06:53;;;;;;;1.50;1.00;;;26.60;52.60;;;-147.20;100.00;58430.41;5115767;28;20551;-52
2021/07/18 04:09:19;;;;;;;0.68;0.68;;;26.60;52.60;;;-147.20;100.00;58430.41;5115856;28;20047;-47
2021/07/18 04:11:45;;;;;;;0.70;0.70;;;26.60;52.60;;;-147.20;100.00;58430.41;5115964;28;20098;-50
2021/07/18 04:14:11;;;;;;;0.85;0.80;;;26.60;52.70;;;-147.20;100.00;58430.41;5097652;28;20040;-49
2021/07/18 04:16:36;;;;;;;0.93;0.93;;;26.60;52.70;;;-147.20;100.00;58430.41;5115624;28;20059;-47
2021/07/18 04:19:02;;;;;;;0.77;0.77;;;26.50;52.70;;;-147.20;100.00;58430.41;5114256;28;20057;-53
2021/07/18 04:21:28;;;;;;;0.80;0.80;;;26.60;52.80;;;-147.20;100.00;58430.41;5097660;28;20047;-50
2021/07/18 04:23:54;;;;;;;0.88;0.80;;;26.50;52.80;;;-147.20;100.00;58430.41;5115595;28;20048;-51
2021/07/18 04:26:20;;;;;;;0.70;0.70;;;26.50;52.80;;;-147.20;100.00;58430.41;5115517;28;20174;-49
2021/07/18 04:28:45;;;;;;;0.73;0.73;;;26.50;52.80;;;-147.20;100.00;58430.41;5115541;28;20059;-49
2021/07/18 04:31:11;;;;;;;0.73;0.70;;;26.50;52.80;;;-147.20;100.00;58430.41;5115755;28;20054;-48
2021/07/18 04:33:37;;;;;;;0.60;0.60;;;26.50;52.90;;;-147.20;100.00;58430.41;5097179;28;20050;-49
2021/07/18 04:36:04;;;;;;;0.70;0.70;;;26.50;52.90;;;-147.20;100.00;58430.41;5114913;28;20047;-47
2021/07/18 04:38:31;;;;;;;0.90;0.80;;;26.50;53.00;;;-147.20;100.00;58430.41;5115353;28;20054;-50
2021/07/18 04:40:56;;;;;;;0.77;0.77;;;26.50;52.90;;;-147.20;100.00;58430.41;5096940;28;20054;-51
2021/07/18 04:43:22;;;;;;;0.70;0.70;;;26.50;52.90;;;-147.20;100.00;58430.41;5115231;28;20492;-48
2021/07/18 04:45:48;;;;;;;0.80;0.80;;;26.50;52.90;;;-147.20;100.00;58430.41;5095654;28;20472;-47
2021/07/18 04:48:14;;;;;;;1.17;0.77;;;26.50;52.90;;;-147.20;100.00;58430.41;5115063;28;20487;-51
2021/07/18 04:50:39;;;;;;;0.70;0.70;;;26.50;52.90;;;-147.20;100.00;58430.41;5115322;28;20427;-48
2021/07/18 04:53:05;;;;;;;1.00;0.90;;;26.50;52.90;;;-147.20;100.00;58430.41;5115074;28;20059;-45
2021/07/18 04:55:31;;;;;;;0.70;0.70;;;26.50;52.80;;;-147.20;100.00;58430.41;5115276;28;20043;-45
2021/07/18 04:57:57;;;;;;;0.95;0.90;;;26.60;52.80;;;-147.20;100.00;58430.41;5115010;28;20138;-48
2021/07/18 05:00:23;;;;;;;1.05;0.70;;;26.70;52.80;;;-147.20;100.00;58430.41;5115549;28;20048;-47
2021/07/18 05:02:50;;;;;;;0.80;0.80;;;26.70;52.50;;;-147.20;100.00;58430.41;5114987;28;20044;-47
2021/07/18 05:05:18;;;;;;;0.90;0.90;;;26.80;52.30;;;-147.20;100.00;58430.41;5115216;28;20070;-46
2021/07/18 05:07:59;;;;;;;1.00;0.90;;;26.90;52.20;;;31.69;33.85;101864.34;5114771;28;20510;-48
2021/07/18 05:10:27;;;;;;;0.70;0.70;;;27.00;52.10;;;31.69;33.85;101864.34;5115209;28;20428;-50
2021/07/18 05:12:55;;;;;;;0.88;0.88;;;27.00;52.00;;;31.69;100.00;86422.13;5114736;28;20050;-47
2021/07/18 05:15:23;;;;;;;0.63;0.63;;;27.10;51.90;;;-147.20;100.00;58430.41;5114771;28;20048;-52
2021/07/18 05:17:50;;;;;;;0.77;0.77;;;27.10;51.70;;;-147.20;100.00;58430.41;5114680;28;20043;-50
2021/07/18 05:20:19;;;;;;;0.73;0.73;;;27.20;51.70;;;-147.20;100.00;58430.41;5114639;28;20537;-49
2021/07/18 05:22:45;;;;;;;0.70;0.70;;;27.20;51.70;;;-147.20;100.00;58430.41;5115112;28;20047;-51
2021/07/18 05:25:11;;;;;;;1.08;0.98;;;27.20;51.50;;;-147.20;100.00;58430.41;5114705;28;20039;-51
2021/07/18 05:27:39;;;;;;;0.52;0.52;;;27.30;51.60;;;-147.20;100.00;58430.41;5114566;28;20047;-50
2021/07/18 05:30:07;;;;;;;1.67;0.73;;;27.30;51.50;;;-147.20;100.00;58430.41;5114533;28;20052;-52
2021/07/18 05:32:32;;;;;;;1.10;1.10;;;27.30;51.40;;;-147.20;100.00;58430.41;5114524;28;20055;-52
2021/07/18 05:34:58;;;;;;;0.73;0.73;;;27.30;51.40;;;-147.20;100.00;58430.41;5114579;28;20407;-50
2021/07/18 05:37:24;;;;;;;0.70;0.70;;;27.30;51.30;;;-147.20;100.00;58430.41;5114869;28;20130;-49
2021/07/18 05:39:50;;;;;;;0.75;0.75;;;27.40;51.30;;;-147.20;100.00;58430.41;5114370;28;20046;-52
2021/07/18 05:42:15;;;;;;;0.70;0.70;;;27.40;51.20;;;-147.20;100.00;58430.41;5114614;28;20534;-52
2021/07/18 05:44:42;;;;;;;0.70;0.70;;;27.40;51.20;;;-147.20;100.00;58430.41;5114963;28;20051;-48
2021/07/18 05:47:11;;;;;;;1.02;0.60;;;27.50;51.20;;;-147.20;100.00;58430.41;5113938;28;20483;-52
2021/07/18 05:49:37;;;;;;;1.20;0.93;;;27.50;51.10;;;-147.20;100.00;58430.41;5113489;28;20039;-48
2021/07/18 05:52:04;;;;;;;0.75;0.75;;;27.60;51.10;;;-147.20;100.00;58430.41;5114545;28;20043;-52
2021/07/18 05:54:30;;;;;;;1.00;0.90;;;27.60;50.90;;;-147.20;100.00;58430.41;5114051;28;20051;-52
2021/07/18 05:56:56;;;;;;;0.93;0.82;;;27.70;51.30;;;-147.20;100.00;58430.41;5114001;28;20131;-50
2021/07/18 05:59:22;;;;;;;0.70;0.70;;;27.70;50.90;;;-147.20;100.00;58430.41;5114070;28;20579;-47
2021/07/18 06:01:49;;;;;;;0.70;0.60;;;27.70;50.80;;;-147.20;100.00;58430.41;5114325;28;20055;-51
2021/07/18 06:04:15;;;;;;;0.60;0.60;;;27.80;50.70;;;-147.20;100.00;58430.41;5114351;28;20089;-50
2021/07/18 06:06:41;;;;;;;0.70;0.70;;;27.80;50.60;;;-147.20;100.00;58430.41;5114140;28;20043;-53
2021/07/18 06:09:07;;;;;;;0.70;0.70;;;27.80;50.50;;;-147.20;100.00;58430.41;5113918;28;20054;-52
2021/07/18 06:11:33;;;;;;;0.60;0.60;;;27.90;50.50;;;-147.20;100.00;58430.41;5113916;28;20035;-50
2021/07/18 06:13:59;;;;;;;0.93;0.80;;;27.90;50.40;;;-147.20;100.00;58430.41;5113859;28;20126;-50
2021/07/18 06:16:25;;;;;;;0.70;0.70;;;28.00;50.40;;;-147.20;100.00;58430.41;5113857;28;20055;-51
2021/07/18 06:18:51;;;;;;;0.85;0.85;;;28.00;50.20;;;-147.20;100.00;58430.41;5113797;28;20047;-48
2021/07/18 06:21:17;;;;;;;0.73;0.73;;;28.00;50.10;;;-147.20;100.00;58430.41;5113649;28;20043;-54
2021/07/18 06:23:43;;;;;;;0.60;0.60;;;28.10;50.10;;;-147.20;100.00;58430.41;5114312;28;20505;-52
2021/07/18 06:26:09;;;;;;;0.60;0.60;;;28.10;50.00;;;-147.20;100.00;58430.41;5113596;28;20047;-47
2021/07/18 06:28:35;;;;;;;0.70;0.70;;;28.20;50.00;;;-147.20;100.00;58430.41;5095280;28;20039;-49
2021/07/18 06:31:01;;;;;;;1.13;0.80;;;28.20;49.80;;;-147.20;100.00;58430.41;5077113;28;20487;-52
2021/07/18 06:33:27;;;;;;;0.80;0.80;;;28.30;49.80;;;-147.20;100.00;58430.41;5113506;28;20074;-51
2021/07/18 06:35:52;;;;;;;0.70;0.70;;;28.40;49.70;;;-147.20;100.00;58430.41;5113401;28;20399;-51
2021/07/18 06:38:18;;;;;;;0.70;0.70;;;28.40;49.60;;;31.69;33.85;101864.34;5113457;28;20044;-48
2021/07/18 06:40:44;;;;;;;0.65;0.65;;;28.40;49.50;;;32.80;32.25;101896.34;5113625;28;20043;-54
2021/07/18 06:43:11;;;;;;;0.57;0.57;;;28.50;49.50;;;32.75;32.39;101891.38;5113305;28;20066;-54
2021/07/18 06:45:36;;;;;;;0.73;0.70;;;28.50;49.90;;;32.74;32.24;101886.94;5113560;28;20184;-53
2021/07/18 06:48:02;;;;;;;0.70;0.70;;;28.60;49.30;;;32.78;32.33;101896.50;5113640;28;20047;-52
2021/07/18 06:50:28;;;;;;;0.73;0.73;;;28.60;49.20;;;32.78;32.50;101901.91;5113859;28;20040;-49
2021/07/18 06:52:54;;;;;;;0.70;0.70;;;28.70;49.20;;;32.81;32.15;101898.03;5113257;28;20092;-50
2021/07/18 06:55:20;;;;;;;0.70;0.70;;;28.70;49.10;;;32.85;32.18;101899.47;5113329;28;20044;-52
2021/07/18 06:57:47;;;;;;;0.75;0.70;;;28.80;49.00;;;32.86;32.36;101893.91;5113521;28;20044;-53
2021/07/18 07:00:14;;;;;;;0.63;0.63;;;28.80;48.90;;;32.90;31.95;101893.59;5113141;28;20365;-49
2021/07/18 07:02:40;;;;;;;0.70;0.70;;;28.90;48.80;;;32.98;32.17;101899.09;5111813;28;20177;-52
2021/07/18 07:05:06;;;;;;;0.70;0.70;;;28.90;48.70;;;33.01;31.54;101898.81;5113132;28;20048;-49
2021/07/18 07:07:32;;;;;;;0.57;0.57;;;28.90;48.60;;;33.05;32.10;101894.81;5112892;28;20047;-46
2021/07/18 07:09:58;;;;;;;0.80;0.80;;;29.00;48.60;;;33.07;31.72;101892.78;5112940;28;20541;-50
2021/07/18 07:12:24;;;;;;;0.50;0.50;;;29.10;48.50;;;33.07;31.72;101892.78;5093502;28;20044;-48
2021/07/18 07:14:50;;;;;;;0.63;0.63;;;29.10;48.50;;;33.14;31.56;101880.31;5113546;28;20052;-50
2021/07/18 07:17:16;;;;;;;0.50;0.50;;;29.10;48.30;;;33.20;31.58;101889.75;5112995;28;20039;-49
2021/07/18 07:19:42;;;;;;;0.70;0.70;;;29.10;48.30;;;33.20;31.58;101889.75;5112905;28;20047;-47
2021/07/18 07:22:08;;;;;;;0.50;0.50;;;29.20;48.20;;;33.30;31.76;101901.38;5113292;28;20059;-48
2021/07/18 07:24:34;;;;;;;0.60;0.60;;;29.20;48.10;;;33.32;31.22;101890.41;5113162;28;20495;-51
2021/07/18 07:27:00;;;;;;;0.63;0.60;;;29.30;48.10;;;33.37;31.23;101901.63;5111348;28;20047;-51
2021/07/18 07:29:26;;;;;;;0.77;0.77;;;29.30;48.00;;;33.41;31.54;101898.47;5112854;28;20540;-49
2021/07/18 07:31:52;;;;;;;0.60;0.60;;;29.30;48.00;;;33.40;31.28;101888.63;5113039;28;20036;-52
2021/07/18 07:34:17;;;;;;;0.50;0.50;;;29.30;47.90;;;33.47;31.17;101890.72;5112827;28;20993;-51
2021/07/18 07:36:43;;;;;;;0.60;0.60;;;29.40;47.90;;;33.52;31.43;101885.69;5112682;28;20052;-51
2021/07/18 07:39:09;;;;;;;0.50;0.50;;;29.40;47.80;;;33.55;31.08;101897.06;5113344;28;20040;-47
2021/07/18 07:41:35;;;;;;;0.80;0.80;;;29.40;47.70;;;33.59;31.16;101895.75;5112962;28;20044;-50
2021/07/18 07:44:01;;;;;;;0.50;0.50;;;29.50;47.80;;;33.63;30.90;101898.16;5112907;28;20096;-47
2021/07/18 07:46:27;;;;;;;0.68;0.68;;;29.50;47.60;;;33.66;30.83;101895.97;5112864;28;20108;-49
2021/07/18 07:48:53;;;;;;;0.60;0.60;;;29.50;47.60;;;33.68;30.94;101895.81;5113012;28;20497;-51
2021/07/18 07:51:20;;;;;;;0.70;0.70;;;29.60;47.60;;;33.71;30.81;101898.25;5112595;28;20043;-52
2021/07/18 07:53:47;;;;;;;0.50;0.50;;;29.60;47.50;;;33.72;31.04;101897.28;5112515;28;20056;-49
2021/07/18 07:56:12;;;;;;;0.80;0.80;;;29.60;47.40;;;33.76;30.74;101904.06;5112541;28;20040;-49
2021/07/18 07:58:38;;;;;;;0.65;0.65;;;29.70;47.50;;;33.81;30.95;101901.75;5112241;28;20064;-51
2021/07/18 08:01:04;;;;;;;0.73;0.50;;;29.70;47.40;;;33.83;30.54;101897.03;5112364;28;20070;-52
2021/07/18 08:03:31;;;;;;;0.52;0.52;;;29.60;47.20;;;33.86;31.01;101898.56;5112441;28;20503;-53
2021/07/18 08:05:56;;;;;;;0.60;0.60;;;29.70;47.30;;;33.87;30.60;101894.88;5108455;28;20123;-50
2021/07/18 08:08:22;;;;;;;0.70;0.70;;;29.70;47.20;;;33.90;30.95;101889.13;5112001;28;20060;-49
2021/07/18 08:10:48;;;;;;;0.60;0.60;;;29.80;47.20;;;33.91;30.67;101891.66;5112408;28;20047;-50
2021/07/18 08:13:14;;;;;;;0.60;0.60;;;29.80;47.10;;;33.96;30.76;101892.06;5115960;28;20100;-51
2021/07/18 08:15:39;;;;;;;0.60;0.60;;;29.80;47.00;;;33.98;30.56;101889.16;5115568;28;20059;-50
2021/07/18 08:18:05;;;;;;;0.60;0.60;;;29.80;47.00;;;34.00;30.46;101895.31;5115656;28;20582;-50
2021/07/18 08:20:31;;;;;;;0.90;0.90;;;29.80;47.00;;;34.01;30.69;101893.44;5097791;28;20450;-50
2021/07/18 08:22:57;;;;;;;0.57;0.57;;;29.90;46.90;;;34.05;30.40;101897.53;5116234;28;20051;-54
2021/07/18 08:25:26;;;;;;;0.57;0.57;;;30.00;46.90;;;34.06;30.42;101905.50;5115584;28;20044;-54
2021/07/18 08:27:53;;;;;;;0.60;0.60;;;30.00;46.80;;;34.05;30.55;101909.25;5115548;28;20112;-49
2021/07/18 08:30:19;;;;;;;0.65;0.65;;;30.00;46.80;;;34.05;30.49;101901.13;5113727;28;20052;-51
2021/07/18 08:32:45;;;;;;;0.70;0.70;;;30.00;46.80;;;34.04;30.21;101901.28;5116078;28;20124;-50
2021/07/18 08:35:11;;;;;;;0.50;0.50;;;30.00;46.70;;;34.08;30.58;101910.78;5115741;28;20051;-50
2021/07/18 08:37:37;;;;;;;0.50;0.50;;;30.00;46.60;;;34.05;30.50;101909.25;5115204;28;20082;-51
2021/07/18 08:40:06;;;;;;;0.70;0.70;;;30.00;46.60;;;34.03;30.18;101902.25;5113338;28;20138;-54
2021/07/18 08:42:35;;;;;;;0.60;0.60;;;30.10;46.60;;;34.08;30.05;101908.06;5115253;28;20051;-51
2021/07/18 08:45:01;;;;;;;0.43;0.43;;;30.10;46.50;;;34.11;30.23;101900.47;5097345;28;20491;-53
2021/07/18 08:47:28;;;;;;;0.70;0.70;;;30.10;46.40;;;34.13;100.00;101905.72;5115378;28;20048;-49
2021/07/18 08:49:54;;;;;;;0.70;0.70;;;30.20;46.40;;;-147.20;100.00;58430.41;5115329;28;20040;-51
2021/07/18 08:52:21;;;;;;;0.65;0.60;;;30.20;46.30;;;-147.20;100.00;58430.41;5114110;28;20039;-49
2021/07/18 08:54:49;;;;;;;0.50;0.50;;;30.20;46.20;;;-147.20;100.00;58430.41;5115062;28;20065;-52
2021/07/18 08:57:19;;;;;;;0.60;0.60;;;30.20;46.70;;;-147.20;100.00;58430.41;5115117;28;20086;-51
2021/07/18 08:59:46;;;;;;;0.50;0.50;;;30.20;46.20;;;-147.20;100.00;58430.41;5115029;28;20051;-53
2021/07/18 09:02:13;;;;;;;0.55;0.55;;;30.20;46.20;;;-147.20;100.00;58430.41;5114961;28;20040;-50
2021/07/18 09:04:39;;;;;;;0.50;0.50;;;30.20;46.20;;;-147.20;100.00;58430.41;5115111;28;20048;-49
2021/07/18 09:07:07;;;;;;;0.60;0.60;;;30.20;46.20;;;-147.20;100.00;58430.41;5114906;28;20468;-52
2021/07/18 09:09:34;;;;;;;0.60;0.60;;;30.20;46.20;;;-147.20;100.00;58430.41;5115226;28;20044;-54
2021/07/18 09:12:08;;;;;;;0.57;0.57;;;30.20;46.20;;;-147.20;100.00;58430.41;5095872;28;20048;-53
2021/07/18 09:14:39;;;;;;;0.50;0.50;;;30.20;46.10;;;-147.20;100.00;58430.41;5114874;28;20055;-52
2021/07/18 09:17:10;;;;;;;0.55;0.55;;;30.20;46.10;;;-147.20;100.00;58430.41;5096647;28;20056;-52
2021/07/18 09:19:38;;;;;;;;;;;30.20;46.10;;;-147.20;100.00;58430.41;5115318;28;20550;-51
2021/07/18 09:22:03;;;;;;;0.50;0.50;;;30.20;46.20;;;-147.20;100.00;58430.41;5114502;28;19923;-55
2021/07/18 09:24:37;;;;;;;0.50;0.50;;;30.20;46.10;;;-147.20;100.00;58430.41;5114561;28;20044;-51
2021/07/18 09:27:20;;;;;;;0.52;0.52;;;30.30;46.10;;;-147.20;100.00;58430.41;5097317;28;20052;-51
2021/07/18 09:29:57;;;;;;;0.55;0.55;;;30.30;46.10;;;-147.20;100.00;58430.41;5113984;28;20048;-52
2021/07/18 09:32:29;;;;;;;0.70;0.70;;;30.20;46.10;;;-147.20;100.00;58430.41;5079864;28;20377;-51
2021/07/18 09:35:04;;;;;;;0.80;0.63;;;30.30;46.10;;;-147.20;100.00;58430.41;5113272;28;20048;-54
2021/07/18 09:37:34;;;;;;;0.60;0.60;;;30.30;46.10;;;-147.20;100.00;58430.41;5114750;28;20424;-55
2021/07/18 09:40:01;;;;;;;0.77;0.60;;;30.30;46.10;;;-147.20;100.00;58430.41;5114727;28;20526;-50
2021/07/18 09:42:47;;;;;;;0.70;0.70;;;30.30;46.10;;;-147.20;100.00;58430.41;5096108;28;20039;-49
2021/07/18 09:45:14;;;;;;;0.60;0.60;;;30.30;46.10;;;-147.20;100.00;58430.41;5114240;28;20044;-51
2021/07/18 09:48:01;;;;;;;0.60;0.60;;;30.30;46.00;;;-147.20;100.00;58430.41;5114164;28;20458;-52
2021/07/18 09:50:40;;;;;;;0.60;0.60;;;30.30;46.10;;;-147.20;100.00;58430.41;5114153;28;20048;-54
2021/07/18 09:53:15;;;;;;;0.63;0.63;;;30.30;46.10;;;-147.20;100.00;58430.41;5112592;28;20076;-53
2021/07/18 09:56:16;;;;;;;0.60;0.60;;;30.30;46.10;;;-147.20;100.00;58430.41;5114175;28;20048;-53
2021/07/18 09:58:56;;;;;;;0.60;0.60;;;30.30;46.10;;;-147.20;100.00;58430.41;5114110;28;20055;-54
2021/07/18 10:01:23;;;;;;;0.60;0.60;;;30.30;46.00;;;-147.20;100.00;58430.41;5114318;28;20425;-52